Birmingham-Shuttlesworth International Airport Birmingham US
ICAO: KBHM
IATA: BHM
Category: Large
Scheduled Services: Yes

Elevation: 650 ft
TransAlt. 18000 ft.

Airport Communications:
APP/DEP:123.8
ATIS:119.4
CLNC DEL:125.675
GND:121.7
ARNG OPS:38.7
ANG COMD POST:28.73
ANNISTON RDO:122.2
TWR:119.9
UNICOM:122.95

KBHM Zoom In..

Runways:

(A) RW 06 length 11998 ft width 150 ft
ILS 110.30 / hdg 58

(B) RW 18 length 7099 ft width 150 ft
LOC 111.30 / hdg 183

(C) RW 24 length 11998 ft width 150 ft
ILS 109.50 / hdg 238

(D) RW 36 length 7099 ft width 150 ft
LOC 111.30 / hdg 3

Location; KBHM
Day. 23 / Time. 09.53 Zulu
* Altimeter: 29.84
* Temperature: 22° c. 71.6°f.
* Wind from: 290° Speed 04 kn.
Dewpoint: 19° c.
Visibility: 10 Statute Miles.
Clouds: Broken 2900 ft.

KBHM 230953Z 29004KT 10SM BKN029 22/19 A2984 RMK AO2 SLP095 T02170189


Wind From 290°
Speed 04 kn.

 
 
jpsmedia.com for Web Design worldairports.se 2018   terms of use